Time;durP1;ratioP1;P1;durP2;ratioP2;P2;SDS_P1;SDS_P2;PMS_P1;PMS_P2;Temp;Humidity;BMP_temperature;BMP_pressure;BME280_temperature;BME280_humidity;BME280_pressure;Samples;Min_cycle;Max_cycle;Signal;HPM_P1;HPM_P2
2021/11/20 00:02:09;;;;;;;20.77;13.23;;;;;;;;;;4940809;29;20104;-70
2021/11/20 00:04:35;;;;;;;22.55;12.82;;;;;;;;;;4956639;29;20487;-70
2021/11/20 00:07:03;;;;;;;21.65;13.73;;;;;;;;;;4957034;29;20114;-70
2021/11/20 00:09:30;;;;;;;19.98;13.35;;;;;;;;;;4956735;29;20058;-70
2021/11/20 00:12:01;;;;;;;20.65;12.98;;;;;;;;;;4956229;29;20047;-70
2021/11/20 00:14:30;;;;;;;21.70;13.38;;;;;;;;;;4956402;29;20110;-70
2021/11/20 00:16:58;;;;;;;18.73;12.85;;;;;;;;;;4956402;29;20581;-70
2021/11/20 00:19:24;;;;;;;21.77;13.25;;;;;;;;;;4956180;29;20051;-70
2021/11/20 00:21:55;;;;;;;19.50;12.38;;;;;;;;;;4939612;29;20458;-70
2021/11/20 00:24:27;;;;;;;19.30;12.75;;;;;;;;;;4920163;29;20060;-70
2021/11/20 00:26:55;;;;;;;24.60;15.00;;;;;;;;;;4936653;29;20062;-70
2021/11/20 00:29:27;;;;;;;22.23;14.13;;;;;;;;;;4936903;29;20499;-70
2021/11/20 00:31:56;;;;;;;22.73;14.27;;;;;;;;;;4936755;29;20055;-70
2021/11/20 00:34:27;;;;;;;24.10;15.18;;;;;;;;;;4936732;29;20086;-70
2021/11/20 00:36:54;;;;;;;25.38;14.82;;;;;;;;;;4936959;29;20055;-69
2021/11/20 00:39:24;;;;;;;25.10;15.38;;;;;;;;;;4936634;29;20058;-69
2021/11/20 00:41:52;;;;;;;23.63;14.55;;;;;;;;;;4952054;29;20134;-70
2021/11/20 00:44:19;;;;;;;23.80;15.60;;;;;;;;;;4955762;29;20118;-70
2021/11/20 00:46:46;;;;;;;26.92;16.20;;;;;;;;;;4956012;29;20051;-69
2021/11/20 00:49:14;;;;;;;22.77;14.75;;;;;;;;;;4955739;29;20054;-69
2021/11/20 00:51:41;;;;;;;23.98;15.70;;;;;;;;;;4955538;29;20145;-70
2021/11/20 00:54:08;;;;;;;25.30;14.10;;;;;;;;;;4955586;29;20494;-70
2021/11/20 00:56:35;;;;;;;27.13;16.42;;;;;;;;;;4955737;29;20105;-69
2021/11/20 00:59:02;;;;;;;25.63;15.43;;;;;;;;;;4955623;29;20051;-70
2021/11/20 01:01:33;;;;;;;24.15;16.15;;;;;;;;;;4955238;29;20055;-69
2021/11/20 01:04:01;;;;;;;25.48;14.82;;;;;;;;;;4955433;29;20043;-69
2021/11/20 01:06:28;;;;;;;26.15;16.52;;;;;;;;;;4955440;29;20106;-70
2021/11/20 01:08:55;;;;;;;26.88;15.73;;;;;;;;;;4955457;29;20109;-70
2021/11/20 01:11:26;;;;;;;23.45;14.70;;;;;;;;;;4955104;29;20055;-70
2021/11/20 01:13:54;;;;;;;26.08;15.70;;;;;;;;;;4955417;29;20051;-70
2021/11/20 01:16:21;;;;;;;25.48;16.02;;;;;;;;;;4955328;29;20055;-69
2021/11/20 01:18:48;;;;;;;25.23;15.20;;;;;;;;;;4951766;29;20064;-70
2021/11/20 01:21:15;;;;;;;24.45;14.98;;;;;;;;;;4935855;29;20087;-70
2021/11/20 01:23:44;;;;;;;26.15;15.38;;;;;;;;;;4935815;29;20059;-70
2021/11/20 01:26:11;;;;;;;27.67;16.52;;;;;;;;;;4935921;29;20408;-70
2021/11/20 01:28:40;;;;;;;24.55;14.98;;;;;;;;;;4936003;29;20052;-69
2021/11/20 01:31:07;;;;;;;27.08;16.17;;;;;;;;;;4935535;29;20055;-70
2021/11/20 01:33:34;;;;;;;26.52;15.18;;;;;;;;;;4935718;29;20507;-69
2021/11/20 01:36:01;;;;;;;24.85;15.85;;;;;;;;;;4935881;29;20467;-70
2021/11/20 01:38:28;;;;;;;25.83;15.65;;;;;;;;;;4935000;29;20705;-70
2021/11/20 01:40:55;;;;;;;24.50;15.15;;;;;;;;;;4935375;29;20055;-70
2021/11/20 01:43:21;;;;;;;23.65;14.82;;;;;;;;;;4935478;29;20404;-70
2021/11/20 01:45:58;;;;;;;23.77;15.55;;;;;;;;;;4935738;29;20052;-70
2021/11/20 01:48:39;;;;;;;26.17;15.00;;;;;;;;;;4935480;29;20047;-70
2021/11/20 01:51:09;;;;;;;27.35;15.25;;;;;;;;;;4935108;29;20059;-70
2021/11/20 01:53:51;;;;;;;27.17;16.38;;;;;;;;;;4935534;29;20044;-69
2021/11/20 01:56:34;;;;;;;24.10;14.35;;;;;;;;;;4904798;29;20052;-70
2021/11/20 01:59:13;;;;;;;24.63;14.93;;;;;;;;;;4904997;29;20106;-69
2021/11/20 02:01:45;;;;;;;24.73;15.07;;;;;;;;;;4935118;29;20474;-70
2021/11/20 02:04:33;;;;;;;24.42;15.80;;;;;;;;;;4918182;29;20070;-70
2021/11/20 02:07:26;;;;;;;25.70;15.70;;;;;;;;;;4918545;29;20052;-70
2021/11/20 02:10:06;;;;;;;21.80;14.60;;;;;;;;;;4935461;29;20491;-70
2021/11/20 02:12:39;;;;;;;26.67;14.43;;;;;;;;;;4919637;29;20048;-70
2021/11/20 02:15:14;;;;;;;23.83;13.75;;;;;;;;;;4935059;29;20055;-70
2021/11/20 02:17:44;;;;;;;22.20;13.50;;;;;;;;;;4935184;29;20111;-67
2021/11/20 02:20:26;;;;;;;23.60;13.82;;;;;;;;;;4934872;29;20051;-68
2021/11/20 02:22:53;;;;;;;23.48;13.57;;;;;;;;;;4934613;29;20052;-68
2021/11/20 02:25:21;;;;;;;20.80;13.07;;;;;;;;;;4934863;29;20055;-68
2021/11/20 02:27:50;;;;;;;22.75;14.30;;;;;;;;;;4935054;29;20111;-68
2021/11/20 02:30:38;;;;;;;25.85;13.88;;;;;;;;;;4935120;29;20048;-67
2021/11/20 02:33:07;;;;;;;20.40;13.25;;;;;;;;;;4934606;29;20088;-68
2021/11/20 02:35:39;;;;;;;22.42;13.80;;;;;;;;;;4934621;29;20570;-68
2021/11/20 02:38:07;;;;;;;24.07;14.13;;;;;;;;;;4934843;29;20437;-67
2021/11/20 02:40:34;;;;;;;23.25;13.35;;;;;;;;;;4948640;29;20057;-68
2021/11/20 02:43:01;;;;;;;20.08;12.68;;;;;;;;;;4953565;29;20438;-68
2021/11/20 02:45:34;;;;;;;20.95;12.52;;;;;;;;;;4953725;29;20055;-68
2021/11/20 02:48:01;;;;;;;20.77;12.63;;;;;;;;;;4953763;29;20051;-69
2021/11/20 02:50:40;;;;;;;18.42;11.65;;;;;;;;;;4940434;29;20090;-68
2021/11/20 02:53:09;;;;;;;22.10;12.73;;;;;;;;;;4934326;29;20048;-68
2021/11/20 02:55:41;;;;;;;19.90;12.75;;;;;;;;;;4934371;29;20056;-68
2021/11/20 02:58:08;;;;;;;20.08;12.07;;;;;;;;;;4934509;29;20404;-68
2021/11/20 03:00:35;;;;;;;17.90;12.02;;;;;;;;;;4934830;29;20051;-68
2021/11/20 03:03:02;;;;;;;23.55;13.20;;;;;;;;;;4934242;29;20048;-67
2021/11/20 03:05:29;;;;;;;17.88;12.88;;;;;;;;;;4934650;29;20574;-68
2021/11/20 03:07:55;;;;;;;19.08;13.15;;;;;;;;;;4934465;29;20460;-68
2021/11/20 03:10:22;;;;;;;21.95;12.93;;;;;;;;;;4945753;29;20111;-68
2021/11/20 03:12:48;;;;;;;22.48;13.20;;;;;;;;;;4953232;29;20050;-68
2021/11/20 03:15:15;;;;;;;19.30;12.45;;;;;;;;;;4953496;29;20469;-68
2021/11/20 03:17:42;;;;;;;19.92;12.05;;;;;;;;;;4953600;29;20102;-67
2021/11/20 03:20:11;;;;;;;21.25;13.38;;;;;;;;;;4943485;29;20118;-68
2021/11/20 03:22:44;;;;;;;18.95;11.68;;;;;;;;;;4934158;29;20043;-68
2021/11/20 03:25:11;;;;;;;21.58;14.32;;;;;;;;;;4978465;23;20051;-68
2021/11/20 03:27:37;;;;;;;21.33;12.20;;;;;;;;;;4972766;28;20053;-68
2021/11/20 03:30:05;;;;;;;22.42;14.05;;;;;;;;;;4972745;28;20094;-68
2021/11/20 03:32:32;;;;;;;19.38;12.73;;;;;;;;;;4972482;28;20051;-68
2021/11/20 03:34:59;;;;;;;18.48;11.50;;;;;;;;;;4972603;28;20465;-68
2021/11/20 03:37:26;;;;;;;21.48;12.82;;;;;;;;;;4972627;28;20047;-68
2021/11/20 03:39:53;;;;;;;21.55;12.95;;;;;;;;;;4972506;28;20051;-68
2021/11/20 03:42:20;;;;;;;20.88;11.90;;;;;;;;;;4972414;28;20109;-68
2021/11/20 03:44:47;;;;;;;21.52;12.60;;;;;;;;;;4972651;28;20114;-68
2021/11/20 03:47:14;;;;;;;19.33;12.25;;;;;;;;;;4972372;28;20050;-68
2021/11/20 03:49:42;;;;;;;21.67;13.50;;;;;;;;;;4972414;28;20513;-68
2021/11/20 03:52:10;;;;;;;19.80;12.10;;;;;;;;;;4972179;28;20051;-68
2021/11/20 03:54:37;;;;;;;20.63;12.20;;;;;;;;;;4972541;28;20051;-68
2021/11/20 03:57:04;;;;;;;21.27;12.23;;;;;;;;;;4955288;28;20046;-68
2021/11/20 03:59:31;;;;;;;21.95;12.40;;;;;;;;;;4972552;28;20066;-68
2021/11/20 04:01:59;;;;;;;19.85;11.80;;;;;;;;;;4972995;28;20047;-68
2021/11/20 04:04:27;;;;;;;19.80;11.95;;;;;;;;;;4975847;28;20051;-68
2021/11/20 04:06:54;;;;;;;18.17;11.32;;;;;;;;;;4975934;28;20465;-68
2021/11/20 04:09:22;;;;;;;16.98;11.77;;;;;;;;;;4975639;28;20117;-68
2021/11/20 04:11:49;;;;;;;17.05;11.48;;;;;;;;;;4975635;28;20556;-68
2021/11/20 04:14:19;;;;;;;18.48;10.63;;;;;;;;;;4975637;28;20549;-68
2021/11/20 04:16:45;;;;;;;16.83;10.50;;;;;;;;;;4975793;28;20051;-68
2021/11/20 04:19:12;;;;;;;17.38;11.20;;;;;;;;;;4975334;28;20105;-68
2021/11/20 04:21:39;;;;;;;16.45;10.75;;;;;;;;;;4975303;28;20051;-68
2021/11/20 04:24:06;;;;;;;14.25;9.75;;;;;;;;;;4975114;28;20058;-68
2021/11/20 04:26:34;;;;;;;17.17;10.23;;;;;;;;;;4956786;28;20054;-68
2021/11/20 04:29:00;;;;;;;16.52;10.27;;;;;;;;;;4956292;28;20102;-68
2021/11/20 04:31:27;;;;;;;15.38;10.00;;;;;;;;;;4955924;28;20055;-68
2021/11/20 04:33:54;;;;;;;15.07;9.90;;;;;;;;;;4956105;28;20490;-67
2021/11/20 04:36:23;;;;;;;17.48;10.55;;;;;;;;;;4955843;29;20059;-68
2021/11/20 04:38:51;;;;;;;17.63;10.50;;;;;;;;;;4970700;28;20062;-68
2021/11/20 04:41:17;;;;;;;16.50;11.02;;;;;;;;;;4955704;28;20110;-68
2021/11/20 04:43:45;;;;;;;18.83;12.18;;;;;;;;;;4956052;28;20050;-68
2021/11/20 04:46:13;;;;;;;17.25;10.57;;;;;;;;;;4955940;28;20057;-68
2021/11/20 04:48:40;;;;;;;16.48;10.25;;;;;;;;;;4956126;28;20558;-68
2021/11/20 04:51:07;;;;;;;17.83;11.63;;;;;;;;;;4955568;29;20098;-69
2021/11/20 04:53:38;;;;;;;14.23;10.05;;;;;;;;;;4955964;28;20458;-68
2021/11/20 04:56:06;;;;;;;16.10;10.73;;;;;;;;;;4955729;28;20106;-68
2021/11/20 04:58:35;;;;;;;17.05;10.48;;;;;;;;;;4955733;28;20126;-69
2021/11/20 05:01:03;;;;;;;18.08;10.45;;;;;;;;;;4970305;28;20566;-68
2021/11/20 05:03:31;;;;;;;17.15;10.48;;;;;;;;;;4960401;28;20051;-68
2021/11/20 05:05:58;;;;;;;15.88;10.20;;;;;;;;;;4974926;28;20051;-68
2021/11/20 05:08:25;;;;;;;14.55;9.82;;;;;;;;;;4974826;28;20552;-68
2021/11/20 05:10:53;;;;;;;16.20;10.32;;;;;;;;;;4974808;28;20122;-68
2021/11/20 05:13:21;;;;;;;16.38;10.40;;;;;;;;;;4973060;28;20050;-68
2021/11/20 05:15:49;;;;;;;17.13;11.15;;;;;;;;;;4974676;28;20055;-68
2021/11/20 05:18:16;;;;;;;17.45;11.00;;;;;;;;;;4974528;28;20138;-68
2021/11/20 05:20:43;;;;;;;16.85;11.15;;;;;;;;;;4974557;28;20109;-68
2021/11/20 05:23:10;;;;;;;17.52;10.63;;;;;;;;;;4974346;28;20047;-68
2021/11/20 05:25:37;;;;;;;18.63;11.07;;;;;;;;;;4974278;28;20497;-68
2021/11/20 05:28:04;;;;;;;14.80;10.15;;;;;;;;;;4974483;28;20058;-68
2021/11/20 05:30:35;;;;;;;15.68;10.57;;;;;;;;;;4974496;28;20272;-68
2021/11/20 05:33:05;;;;;;;17.60;10.75;;;;;;;;;;4974198;28;20097;-68
2021/11/20 05:35:32;;;;;;;17.50;10.48;;;;;;;;;;4974081;28;20431;-68
2021/11/20 05:37:59;;;;;;;16.67;10.55;;;;;;;;;;4962103;28;20051;-67
2021/11/20 05:40:26;;;;;;;18.77;10.20;;;;;;;;;;4954853;29;20058;-67
2021/11/20 05:42:57;;;;;;;16.65;10.55;;;;;;;;;;4954712;29;20474;-67
2021/11/20 05:45:27;;;;;;;17.27;10.27;;;;;;;;;;4954639;28;20478;-67
2021/11/20 05:47:53;;;;;;;18.40;10.30;;;;;;;;;;4954867;29;20047;-67
2021/11/20 05:50:22;;;;;;;19.70;11.65;;;;;;;;;;4954573;29;20051;-68
2021/11/20 05:52:49;;;;;;;18.10;10.70;;;;;;;;;;4954361;29;20051;-68
2021/11/20 05:55:17;;;;;;;20.00;10.98;;;;;;;;;;4968373;28;20425;-68
2021/11/20 05:57:44;;;;;;;17.83;10.35;;;;;;;;;;4973849;28;20576;-67
2021/11/20 06:00:14;;;;;;;17.38;10.20;;;;;;;;;;4973503;28;20561;-68
2021/11/20 06:02:41;;;;;;;16.40;10.38;;;;;;;;;;4973789;28;20537;-68
2021/11/20 06:05:08;;;;;;;16.90;10.38;;;;;;;;;;4973532;28;20130;-68
2021/11/20 06:07:34;;;;;;;19.02;10.88;;;;;;;;;;4973829;28;20117;-67
2021/11/20 06:10:01;;;;;;;18.98;10.93;;;;;;;;;;4973693;28;20465;-68
2021/11/20 06:12:28;;;;;;;16.30;10.45;;;;;;;;;;4962659;28;20455;-67
2021/11/20 06:14:55;;;;;;;22.35;10.77;;;;;;;;;;4954246;29;20418;-66
2021/11/20 06:17:21;;;;;;;18.55;10.75;;;;;;;;;;4954064;29;20466;-67
2021/11/20 06:19:48;;;;;;;20.17;11.90;;;;;;;;;;4954277;29;20102;-67
2021/11/20 06:22:14;;;;;;;14.88;9.93;;;;;;;;;;4954078;28;20047;-67
2021/11/20 06:24:41;;;;;;;18.13;11.68;;;;;;;;;;4951067;28;20048;-66
2021/11/20 06:27:08;;;;;;;19.48;10.38;;;;;;;;;;4951926;28;20051;-67
2021/11/20 06:29:34;;;;;;;20.08;10.70;;;;;;;;;;4952140;29;20059;-67
2021/11/20 06:32:01;;;;;;;16.25;9.95;;;;;;;;;;4952198;28;20055;-67
2021/11/20 06:34:28;;;;;;;19.40;11.13;;;;;;;;;;4955490;28;20047;-67
2021/11/20 06:36:55;;;;;;;17.15;10.07;;;;;;;;;;4960996;28;20089;-67
2021/11/20 06:39:22;;;;;;;19.75;11.80;;;;;;;;;;4944253;28;20110;-67
2021/11/20 06:41:48;;;;;;;19.67;9.98;;;;;;;;;;4961339;28;20122;-67
2021/11/20 06:44:15;;;;;;;18.40;12.00;;;;;;;;;;4961391;28;20105;-67
2021/11/20 06:46:42;;;;;;;19.25;12.55;;;;;;;;;;4961261;28;20110;-66
2021/11/20 06:49:08;;;;;;;19.73;12.23;;;;;;;;;;4959905;28;20106;-67
2021/11/20 06:51:35;;;;;;;18.25;11.35;;;;;;;;;;4960621;28;20101;-66
2021/11/20 06:54:02;;;;;;;17.60;11.32;;;;;;;;;;4959679;28;20618;-67
2021/11/20 06:56:43;;;;;;;20.42;11.85;;;;;;;;;;4961716;28;20046;-67
2021/11/20 07:00:26;;;;;;;17.67;11.30;;;;;;;;;;4946519;28;20054;-67
2021/11/20 07:02:04;;;;;;;17.63;10.82;;;;;;;;;;4959390;28;20402;-67
2021/11/20 07:04:32;;;;;;;22.98;11.23;;;;;;;;;;4927684;28;20134;-67
2021/11/20 07:07:04;;;;;;;17.60;11.23;;;;;;;;;;4962097;28;20098;-67
2021/11/20 07:09:32;;;;;;;21.80;12.70;;;;;;;;;;4959690;28;20055;-66
2021/11/20 07:11:59;;;;;;;23.23;13.40;;;;;;;;;;4934350;29;20051;-66
2021/11/20 07:14:27;;;;;;;22.20;12.10;;;;;;;;;;4951396;29;20051;-66
2021/11/20 07:16:54;;;;;;;19.92;12.20;;;;;;;;;;4951083;29;20105;-67
2021/11/20 07:19:20;;;;;;;20.83;12.18;;;;;;;;;;4951658;29;20051;-67
2021/11/20 07:21:47;;;;;;;21.13;13.25;;;;;;;;;;4951470;28;20055;-66
2021/11/20 07:24:17;;;;;;;18.30;11.90;;;;;;;;;;4951152;29;20466;-66
2021/11/20 07:26:44;;;;;;;22.98;12.48;;;;;;;;;;4953883;28;20075;-66
2021/11/20 07:29:12;;;;;;;22.80;12.85;;;;;;;;;;4970287;28;20058;-66
2021/11/20 07:31:43;;;;;;;22.30;12.85;;;;;;;;;;4953913;28;20101;-66
2021/11/20 07:34:09;;;;;;;20.10;12.55;;;;;;;;;;4970534;28;20047;-66
2021/11/20 07:36:36;;;;;;;20.52;13.68;;;;;;;;;;4971264;28;20125;-66
2021/11/20 07:39:09;;;;;;;21.63;14.00;;;;;;;;;;4974546;28;20069;-66
2021/11/20 07:41:36;;;;;;;20.98;13.07;;;;;;;;;;4974253;28;20058;-66
2021/11/20 07:44:06;;;;;;;21.67;13.52;;;;;;;;;;4954748;28;20101;-67
2021/11/20 07:46:33;;;;;;;24.67;13.95;;;;;;;;;;4964213;28;20130;-66
2021/11/20 07:49:00;;;;;;;22.70;12.25;;;;;;;;;;4959887;28;20133;-65
2021/11/20 07:51:28;;;;;;;20.30;13.10;;;;;;;;;;4963331;28;20137;-65
2021/11/20 07:53:55;;;;;;;20.27;12.93;;;;;;;;;;4960124;28;20051;-66
2021/11/20 07:56:27;;;;;;;18.92;11.77;;;;;;;;;;4947080;28;20154;-69
2021/11/20 07:58:54;;;;;;;18.98;11.57;;;;;;;;;;4943624;28;20091;-68
2021/11/20 08:01:24;;;;;;;19.73;12.00;;;;;;;;;;4963642;28;20063;-68
2021/11/20 08:03:51;;;;;;;20.27;12.88;;;;;;;;;;4965904;28;20046;-68
2021/11/20 08:06:19;;;;;;;22.65;12.40;;;;;;;;;;4961028;28;20516;-69
2021/11/20 08:08:46;;;;;;;21.50;13.05;;;;;;;;;;4960441;28;20043;-68
2021/11/20 08:11:13;;;;;;;22.40;12.63;;;;;;;;;;4960241;28;20102;-68
2021/11/20 08:13:39;;;;;;;21.77;13.80;;;;;;;;;;4961006;28;20109;-68
2021/11/20 08:16:06;;;;;;;33.08;20.23;;;;;;;;;;4962156;28;20051;-70
2021/11/20 08:18:33;;;;;;;29.83;18.85;;;;;;;;;;4961456;28;20502;-68
2021/11/20 08:21:03;;;;;;;30.88;18.83;;;;;;;;;;4958946;28;20051;-67
2021/11/20 08:23:31;;;;;;;36.65;21.77;;;;;;;;;;4961385;28;20050;-68
2021/11/20 08:25:57;;;;;;;42.78;25.73;;;;;;;;;;4959623;28;20043;-67
2021/11/20 08:28:26;;;;;;;36.38;21.83;;;;;;;;;;4964635;28;20058;-68
2021/11/20 08:30:53;;;;;;;29.67;17.30;;;;;;;;;;4959540;28;20057;-68
2021/11/20 08:33:20;;;;;;;21.85;14.18;;;;;;;;;;4962730;28;20050;-67
2021/11/20 08:35:46;;;;;;;21.65;13.90;;;;;;;;;;4959217;28;20043;-69
2021/11/20 08:38:13;;;;;;;20.13;12.85;;;;;;;;;;4964396;28;20402;-68
2021/11/20 08:40:42;;;;;;;20.13;12.25;;;;;;;;;;4961359;28;20113;-67
2021/11/20 08:43:09;;;;;;;19.55;11.18;;;;;;;;;;4959509;28;20074;-67
2021/11/20 08:45:39;;;;;;;19.42;11.63;;;;;;;;;;4960720;28;20051;-68
2021/11/20 08:48:06;;;;;;;19.33;12.73;;;;;;;;;;4958277;28;20078;-67
2021/11/20 08:50:36;;;;;;;18.92;12.27;;;;;;;;;;4958502;28;20051;-67
2021/11/20 08:53:04;;;;;;;17.30;10.90;;;;;;;;;;4959018;28;20134;-68
2021/11/20 08:55:31;;;;;;;19.65;11.27;;;;;;;;;;4943565;28;20091;-70
2021/11/20 08:57:58;;;;;;;17.02;10.88;;;;;;;;;;4961282;28;20051;-67
2021/11/20 09:00:31;;;;;;;17.40;11.20;;;;;;;;;;4961663;28;20054;-69
2021/11/20 09:03:14;;;;;;;18.40;10.88;;;;;;;;;;4954005;28;20051;-70
2021/11/20 09:06:02;;;;;;;20.02;11.50;;;;;;;;;;4962879;28;20047;-71
2021/11/20 09:08:34;;;;;;;18.58;11.27;;;;;;;;;;4961436;28;20051;-71
2021/11/20 09:11:27;;;;;;;18.35;11.35;;;;;;;;;;4961823;28;20082;-73
2021/11/20 09:14:15;;;;;;;15.80;10.65;;;;;;;;;;4962088;28;20505;-75
2021/11/20 09:16:42;;;;;;;18.08;11.30;;;;;;;;;;4968487;28;20077;-73
2021/11/20 09:19:09;;;;;;;18.92;12.02;;;;;;;;;;4945748;28;20179;-73
2021/11/20 09:21:51;;;;;;;17.42;11.27;;;;;;;;;;4962933;28;20058;-67
2021/11/20 09:24:17;;;;;;;17.90;11.30;;;;;;;;;;4961382;28;20502;-75
2021/11/20 09:26:44;;;;;;;17.15;10.75;;;;;;;;;;4962957;28;20050;-68
2021/11/20 09:29:13;;;;;;;18.70;11.70;;;;;;;;;;4964588;28;20051;-77
2021/11/20 09:31:41;;;;;;;18.08;10.60;;;;;;;;;;4945449;28;20106;-74
2021/11/20 09:34:09;;;;;;;17.40;10.55;;;;;;;;;;4958079;28;20053;-67
2021/11/20 09:36:35;;;;;;;16.58;11.07;;;;;;;;;;4959753;28;20471;-68
2021/11/20 09:39:07;;;;;;;15.85;10.38;;;;;;;;;;4966701;28;20059;-67
2021/11/20 09:41:55;;;;;;;14.95;9.65;;;;;;;;;;4959620;28;20051;-72
2021/11/20 09:44:22;;;;;;;13.43;9.07;;;;;;;;;;4959586;28;20047;-74
2021/11/20 09:46:52;;;;;;;16.00;9.43;;;;;;;;;;4944338;28;20117;-68
2021/11/20 09:49:36;;;;;;;16.13;9.73;;;;;;;;;;4959011;28;20133;-71
2021/11/20 09:52:04;;;;;;;14.85;10.02;;;;;;;;;;4942712;28;20051;-70
2021/11/20 09:54:35;;;;;;;16.95;11.18;;;;;;;;;;4959816;28;20050;-71
2021/11/20 09:57:30;;;;;;;16.65;10.50;;;;;;;;;;4958771;28;20055;-70
2021/11/20 09:59:57;;;;;;;15.02;10.50;;;;;;;;;;4959799;28;21407;-66
2021/11/20 10:02:24;;;;;;;16.48;10.65;;;;;;;;;;4964513;28;20101;-73
2021/11/20 10:04:54;;;;;;;16.65;11.00;;;;;;;;;;4963609;28;20604;-71
2021/11/20 10:07:43;;;;;;;15.70;10.10;;;;;;;;;;4959654;28;20082;-72
2021/11/20 10:10:24;;;;;;;14.80;9.05;;;;;;;;;;4962444;28;20130;-68
2021/11/20 10:13:13;;;;;;;16.98;10.98;;;;;;;;;;4964560;28;20101;-70
2021/11/20 10:16:04;;;;;;;17.40;10.38;;;;;;;;;;4944097;28;20094;-68
2021/11/20 10:18:35;;;;;;;17.77;10.23;;;;;;;;;;4958570;28;20126;-68
2021/11/20 10:21:39;;;;;;;15.90;9.55;;;;;;;;;;4942207;28;20051;-67
2021/11/20 10:24:41;;;;;;;14.05;9.02;;;;;;;;;;4962446;28;20055;-70
2021/11/20 10:27:29;;;;;;;15.02;9.23;;;;;;;;;;4959269;28;20561;-70
2021/11/20 10:30:03;;;;;;;14.73;10.00;;;;;;;;;;4959771;28;20106;-68
2021/11/20 10:32:36;;;;;;;12.18;8.07;;;;;;;;;;4962174;28;20121;-68
2021/11/20 10:35:32;;;;;;;15.18;9.25;;;;;;;;;;4962723;28;20050;-69
2021/11/20 10:38:25;;;;;;;11.90;8.27;;;;;;;;;;4962254;28;20081;-69
2021/11/20 10:41:02;;;;;;;13.40;8.40;;;;;;;;;;4960374;28;20054;-71
2021/11/20 10:43:41;;;;;;;12.48;8.20;;;;;;;;;;4961376;28;20106;-72
2021/11/20 10:46:07;;;;;;;10.60;7.55;;;;;;;;;;4958484;28;20160;-71
2021/11/20 10:48:40;;;;;;;15.82;9.20;;;;;;;;;;4961232;28;20391;-70
2021/11/20 10:51:19;;;;;;;;;;;;;;;;;;4961394;28;20562;-71
2021/11/20 10:53:56;;;;;;;16.50;9.43;;;;;;;;;;4965372;28;19985;-71
2021/11/20 10:57:01;;;;;;;11.05;7.10;;;;;;;;;;4961453;28;20053;-71
2021/11/20 10:59:37;;;;;;;10.75;7.65;;;;;;;;;;4962715;28;20261;-73
2021/11/20 11:02:28;;;;;;;10.55;7.60;;;;;;;;;;4962202;28;20057;-72
2021/11/20 11:05:16;;;;;;;7.55;5.60;;;;;;;;;;4962138;28;20082;-72
2021/11/20 11:08:22;;;;;;;7.70;5.65;;;;;;;;;;4960298;28;20109;-69
2021/11/20 11:10:57;;;;;;;6.78;4.80;;;;;;;;;;4962087;28;20051;-68
2021/11/20 11:13:43;;;;;;;8.25;4.85;;;;;;;;;;4946902;28;20055;-67
2021/11/20 11:16:30;;;;;;;7.45;4.95;;;;;;;;;;4964249;28;20058;-67
2021/11/20 11:19:27;;;;;;;;;;;;;;;;;;;;;
2021/11/20 11:22:19;;;;;;;12.35;6.53;;;;;;;;;;4962510;28;20106;-76
2021/11/20 11:25:08;;;;;;;10.80;6.80;;;;;;;;;;4968013;28;20051;-66
2021/11/20 11:28:04;;;;;;;11.57;7.35;;;;;;;;;;4963718;28;20054;-66
2021/11/20 11:30:57;;;;;;;10.05;6.40;;;;;;;;;;4963251;28;20577;-70
2021/11/20 11:33:25;;;;;;;12.00;7.25;;;;;;;;;;4949047;28;20097;-70
2021/11/20 11:35:57;;;;;;;8.77;5.97;;;;;;;;;;4946679;28;20418;-69
2021/11/20 11:38:33;;;;;;;9.32;6.30;;;;;;;;;;4965616;28;20054;-67
2021/11/20 11:41:32;;;;;;;12.35;7.10;;;;;;;;;;4964506;28;20054;-68
2021/11/20 11:44:28;;;;;;;11.40;6.57;;;;;;;;;;4965558;28;20059;-68
2021/11/20 11:47:00;;;;;;;11.90;6.30;;;;;;;;;;4964916;28;20059;-69
2021/11/20 11:49:50;;;;;;;10.68;6.63;;;;;;;;;;4962636;28;20569;-68
2021/11/20 11:52:29;;;;;;;8.93;6.38;;;;;;;;;;4945758;28;20506;-69
2021/11/20 11:55:31;;;;;;;12.48;7.03;;;;;;;;;;4947955;28;20051;-68
2021/11/20 11:58:19;;;;;;;11.48;6.82;;;;;;;;;;4948093;28;20759;-69
2021/11/20 12:00:48;;;;;;;7.70;5.45;;;;;;;;;;4961653;28;20047;-72
2021/11/20 12:03:28;;;;;;;7.18;4.72;;;;;;;;;;4964199;28;20525;-71
2021/11/20 12:06:28;;;;;;;9.93;5.75;;;;;;;;;;4964345;28;20115;-70
2021/11/20 12:09:24;;;;;;;6.65;4.68;;;;;;;;;;4966559;28;20352;-70
2021/11/20 12:11:51;;;;;;;7.90;5.05;;;;;;;;;;4964020;28;20061;-67
2021/11/20 12:14:33;;;;;;;8.88;5.65;;;;;;;;;;4962803;28;20603;-68
2021/11/20 12:16:59;;;;;;;7.95;5.47;;;;;;;;;;4964109;28;20507;-70
2021/11/20 12:19:34;;;;;;;8.48;5.78;;;;;;;;;;4964764;28;20053;-69
2021/11/20 12:22:21;;;;;;;6.38;4.60;;;;;;;;;;4964645;28;20055;-70
2021/11/20 12:24:54;;;;;;;8.65;6.00;;;;;;;;;;4959228;28;20084;-65
2021/11/20 12:27:25;;;;;;;;;;;;;;;;;;4959373;28;20098;-65
2021/11/20 12:30:14;;;;;;;6.55;5.18;;;;;;;;;;4959370;28;20440;-65
2021/11/20 12:33:06;;;;;;;7.07;4.68;;;;;;;;;;4957402;28;20403;-65
2021/11/20 12:35:41;;;;;;;6.60;4.82;;;;;;;;;;4958822;28;20133;-65
2021/11/20 12:38:45;;;;;;;7.45;4.95;;;;;;;;;;4964592;28;20059;-65
2021/11/20 12:41:38;;;;;;;7.47;4.78;;;;;;;;;;4957700;28;20526;-65
2021/11/20 12:44:25;;;;;;;8.32;5.03;;;;;;;;;;4957575;28;20457;-65
2021/11/20 12:47:10;;;;;;;7.95;5.15;;;;;;;;;;4960341;28;20486;-65
2021/11/20 12:50:18;;;;;;;8.70;5.60;;;;;;;;;;4958108;28;20043;-65
2021/11/20 12:52:47;;;;;;;8.32;5.55;;;;;;;;;;4939071;29;20051;-65
2021/11/20 12:55:35;;;;;;;6.88;5.20;;;;;;;;;;4940071;29;20539;-64
2021/11/20 12:58:13;;;;;;;8.45;5.57;;;;;;;;;;4952033;28;20098;-64
2021/11/20 13:00:41;;;;;;;9.95;5.30;;;;;;;;;;4958603;28;20048;-64
2021/11/20 13:03:11;;;;;;;8.73;6.00;;;;;;;;;;4959779;28;20105;-64
2021/11/20 13:05:41;;;;;;;7.97;5.60;;;;;;;;;;4958403;28;20129;-66
2021/11/20 13:08:22;;;;;;;9.02;5.95;;;;;;;;;;4961655;28;20108;-65
2021/11/20 13:10:48;;;;;;;8.52;6.05;;;;;;;;;;4961900;28;20178;-65
2021/11/20 13:13:36;;;;;;;10.30;5.95;;;;;;;;;;4958381;28;20465;-66
2021/11/20 13:16:25;;;;;;;8.75;6.13;;;;;;;;;;4941296;28;20062;-66
2021/11/20 13:19:04;;;;;;;10.15;6.68;;;;;;;;;;4960947;28;20051;-66
2021/11/20 13:21:35;;;;;;;9.88;5.60;;;;;;;;;;4959503;28;20057;-66
2021/11/20 13:24:12;;;;;;;11.55;6.43;;;;;;;;;;4958639;28;20105;-66
2021/11/20 13:27:01;;;;;;;9.63;6.82;;;;;;;;;;4956319;28;20558;-66
2021/11/20 13:29:43;;;;;;;10.10;6.15;;;;;;;;;;4957870;28;20051;-66
2021/11/20 13:32:15;;;;;;;10.13;6.07;;;;;;;;;;4959179;28;20055;-65
2021/11/20 13:34:52;;;;;;;9.55;6.18;;;;;;;;;;4958063;28;20396;-65
2021/11/20 13:37:19;;;;;;;8.63;5.75;;;;;;;;;;4960988;28;20106;-66
2021/11/20 13:39:47;;;;;;;8.43;6.07;;;;;;;;;;4963057;28;20085;-65
2021/11/20 13:42:13;;;;;;;9.75;7.05;;;;;;;;;;4957380;28;20118;-64
2021/11/20 13:44:43;;;;;;;8.65;5.95;;;;;;;;;;4958978;28;20043;-65
2021/11/20 13:47:10;;;;;;;9.38;7.05;;;;;;;;;;4943817;28;20075;-65
2021/11/20 13:49:38;;;;;;;10.15;6.70;;;;;;;;;;4941829;28;20141;-66
2021/11/20 13:52:13;;;;;;;16.02;7.55;;;;;;;;;;4958307;28;20465;-65
2021/11/20 13:54:41;;;;;;;8.85;6.85;;;;;;;;;;4957276;28;20051;-65
2021/11/20 13:57:14;;;;;;;10.07;7.30;;;;;;;;;;4960125;28;20656;-65
2021/11/20 13:59:42;;;;;;;9.88;7.38;;;;;;;;;;4957674;28;20055;-66
2021/11/20 14:02:12;;;;;;;9.80;7.20;;;;;;;;;;4958956;28;20054;-65
2021/11/20 14:04:43;;;;;;;9.68;7.47;;;;;;;;;;4958186;28;20058;-65
2021/11/20 14:07:11;;;;;;;9.95;7.43;;;;;;;;;;4957374;28;20051;-66
2021/11/20 14:09:46;;;;;;;9.68;6.93;;;;;;;;;;4960282;28;20527;-67
2021/11/20 14:12:16;;;;;;;12.23;7.68;;;;;;;;;;4958730;28;20474;-66
2021/11/20 14:14:43;;;;;;;12.63;7.38;;;;;;;;;;4961991;28;20065;-70
2021/11/20 14:17:15;;;;;;;13.05;8.77;;;;;;;;;;4958189;28;20051;-73
2021/11/20 14:19:42;;;;;;;10.57;7.60;;;;;;;;;;4958273;28;20047;-68
2021/11/20 14:22:12;;;;;;;10.77;7.47;;;;;;;;;;4959982;28;20360;-68
2021/11/20 14:24:40;;;;;;;14.07;8.48;;;;;;;;;;4961502;28;20474;-67
2021/11/20 14:27:16;;;;;;;14.43;8.88;;;;;;;;;;4961009;28;20046;-69
2021/11/20 14:29:49;;;;;;;10.88;8.20;;;;;;;;;;4959165;28;20058;-72
2021/11/20 14:32:18;;;;;;;12.10;8.70;;;;;;;;;;4961171;28;20122;-70
2021/11/20 14:34:47;;;;;;;14.02;9.82;;;;;;;;;;4959491;28;20161;-71
2021/11/20 14:37:27;;;;;;;16.58;10.27;;;;;;;;;;4958147;28;20055;-72
2021/11/20 14:40:02;;;;;;;12.90;8.98;;;;;;;;;;4965072;28;20058;-71
2021/11/20 14:42:31;;;;;;;12.65;8.57;;;;;;;;;;4958639;28;20090;-72
2021/11/20 14:45:11;;;;;;;15.32;10.63;;;;;;;;;;4958485;28;20095;-71
2021/11/20 14:47:42;;;;;;;13.32;9.15;;;;;;;;;;4961599;28;20447;-72
2021/11/20 14:50:34;;;;;;;12.98;8.63;;;;;;;;;;4959342;28;20117;-67
2021/11/20 14:53:09;;;;;;;13.88;8.48;;;;;;;;;;4959286;28;20085;-73
2021/11/20 14:55:39;;;;;;;17.23;9.15;;;;;;;;;;4957878;28;20039;-71